Time;durP1;ratioP1;P1;durP2;ratioP2;P2;SDS_P1;SDS_P2;PMS_P1;PMS_P2;Temp;Humidity;BMP_temperature;BMP_pressure;BME280_temperature;BME280_humidity;BME280_pressure;Samples;Min_cycle;Max_cycle;Signal;HPM_P1;HPM_P2
2022/11/02 00:00:57;;;;;;;;;;;;;;;;;;5069869;28;19974;-57
2022/11/02 00:03:23;;;;;;;;;;;;;;;;;;5052548;28;20371;-57
2022/11/02 00:05:49;;;;;;;;;;;;;;;;;;5079105;28;19926;-55
2022/11/02 00:08:15;;;;;;;;;;;;;;;;;;5082061;28;19908;-57
2022/11/02 00:10:40;;;;;;;;;;;;;;;;;;5073439;28;20438;-56
2022/11/02 00:13:06;;;;;;;;;;;;;;;;;;5091856;28;19904;-56
2022/11/02 00:15:32;;;;;;;;;;;;;;;;;;5091965;28;19951;-56
2022/11/02 00:17:58;;;;;;;;;;;;;;;;;;5091807;28;19908;-56
2022/11/02 00:20:25;;;;;;;;;;;;;;;;;;5092442;28;19904;-57
2022/11/02 00:22:51;;;;;;;;;;;;;;;;;;5091869;28;19904;-56
2022/11/02 00:25:16;;;;;;;;;;;;;;;;;;5089493;28;19982;-56
2022/11/02 00:27:42;;;;;;;;;;;;;;;;;;5071521;28;20046;-56
2022/11/02 00:30:08;;;;;;;;;;;;;;;;;;5071351;28;19951;-57
2022/11/02 00:32:34;;;;;;;;;;;;;;;;;;5071373;28;19904;-57
2022/11/02 00:35:00;;;;;;;;;;;;;;;;;;5071328;28;19904;-55
2022/11/02 00:37:26;;;;;;;;;;;;;;;;;;5071884;28;19912;-56
2022/11/02 00:39:52;;;;;;;;;;;;;;;;;;5070838;28;19904;-57
2022/11/02 00:42:18;;;;;;;;;;;;;;;;;;5071245;28;19950;-56
2022/11/02 00:44:43;;;;;;;;;;;;;;;;;;5070807;28;20379;-57
2022/11/02 00:47:10;;;;;;;;;;;;;;;;;;5070793;28;19911;-55
2022/11/02 00:49:36;;;;;;;;;;;;;;;;;;5081878;28;20003;-56
2022/11/02 00:52:02;;;;;;;;;;;;;;;;;;5091186;28;20355;-56
2022/11/02 00:54:28;;;;;;;;;;;;;;;;;;5091858;28;19900;-56
2022/11/02 05:59:52;;;;;;;;;;;;;;;;;;5079904;28;20005;-57
2022/11/02 06:02:18;;;;;;;;;;;;;;;;;;5051206;28;20383;-57
2022/11/02 06:04:44;;;;;;;;;;;;;;;;;;5070303;28;19939;-55
2022/11/02 06:07:10;;;;;;;;;;;;;;;;;;5069442;28;19930;-57
2022/11/02 06:09:36;;;;;;;;;;;;;;;;;;5069773;28;19908;-57
2022/11/02 06:12:02;;;;;;;;;;;;;;;;;;5070794;28;19912;-57
2022/11/02 06:14:28;;;;;;;;;;;;;;;;;;5088654;28;19908;-56
2022/11/02 06:16:54;;;;;;;;;;;;;;;;;;5089910;28;19954;-57
2022/11/02 06:19:19;;;;;;;;;;;;;;;;;;5089898;28;19904;-57
2022/11/02 06:21:45;;;;;;;;;;;;;;;;;;5089939;28;19904;-57
2022/11/02 06:24:11;;;;;;;;;;;;;;;;;;5088048;28;19915;-57
2022/11/02 06:26:37;;;;;;;;;;;;;;;;;;5087587;28;19962;-57
2022/11/02 06:29:03;;;;;;;;;;;;;;;;;;5088701;28;20291;-57
2022/11/02 06:31:29;;;;;;;;;;;;;;;;;;5088225;28;20393;-57
2022/11/02 06:33:55;;;;;;;;;;;;;;;;;;5083345;28;20286;-57
2022/11/02 06:36:21;;;;;;;;;;;;;;;;;;5086944;28;20015;-57
2022/11/02 06:38:47;;;;;;;;;;;;;;;;;;5087338;28;19904;-56
2022/11/02 06:41:14;;;;;;;;;;;;;;;;;;5080947;28;19916;-57
2022/11/02 06:43:40;;;;;;;;;;;;;;;;;;5087917;28;20003;-57
2022/11/02 06:46:06;;;;;;;;;;;;;;;;;;5089814;28;19915;-57
2022/11/02 06:48:32;;;;;;;;;;;;;;;;;;5088948;28;20320;-57
2022/11/02 06:50:58;;;;;;;;;;;;;;;;;;5081780;28;20260;-57
2022/11/02 06:53:25;;;;;;;;;;;;;;;;;;5082438;28;19915;-57
2022/11/02 06:55:51;;;;;;;;;;;;;;;;;;5091861;28;20398;-57
2022/11/02 06:58:17;;;;;;;;;;;;;;;;;;5089964;28;19912;-57
2022/11/02 07:00:44;;;;;;;;;;;;;;;;;;5089018;28;20271;-58
2022/11/02 07:03:10;;;;;;;;;;;;;;;;;;5079634;28;19915;-57
2022/11/02 07:05:36;;;;;;;;;;;;;;;;;;5071168;28;19908;-58
2022/11/02 07:08:02;;;;;;;;;;;;;;;;;;5071303;28;19911;-57
2022/11/02 07:10:28;;;;;;;;;;;;;;;;;;5072389;28;19904;-57
2022/11/02 07:12:55;;;;;;;;;;;;;;;;;;5091606;28;19935;-57
2022/11/02 07:15:21;;;;;;;;;;;;;;;;;;5090765;28;19912;-57
2022/11/02 07:17:47;;;;;;;;;;;;;;;;;;5080380;28;19943;-57
2022/11/02 07:20:13;;;;;;;;;;;;;;;;;;5070918;28;19917;-57
2022/11/02 07:22:38;;;;;;;;;;;;;;;;;;5075421;28;19908;-58
2022/11/02 07:25:05;;;;;;;;;;;;;;;;;;5089337;28;20002;-57
2022/11/02 07:27:31;;;;;;;;;;;;;;;;;;5091729;28;19911;-58
2022/11/02 07:29:57;;;;;;;;;;;;;;;;;;5090560;28;20048;-57
2022/11/02 07:32:23;;;;;;;;;;;;;;;;;;5088920;28;19908;-57
2022/11/02 07:34:49;;;;;;;;;;;;;;;;;;5089584;28;20425;-58
2022/11/02 07:37:15;;;;;;;;;;;;;;;;;;5089281;28;19908;-57
2022/11/02 07:39:40;;;;;;;;;;;;;;;;;;5083672;28;20031;-58
2022/11/02 07:42:06;;;;;;;;;;;;;;;;;;5111200;28;19926;-58
2022/11/02 07:44:32;;;;;;;;;;;;;;;;;;5078253;28;19908;-57
2022/11/02 07:46:58;;;;;;;;;;;;;;;;;;5089789;28;19908;-57
2022/11/02 07:49:24;;;;;;;;;;;;;;;;;;5076139;28;19908;-57
2022/11/02 07:51:50;;;;;;;1.92;1.48;;;;;;;;;;5080457;28;20441;-56
2022/11/02 07:54:16;;;;;;;1.75;1.42;;;;;;;;;;5083165;28;20058;-54
2022/11/02 07:56:44;;;;;;;1.63;1.35;;;;;;;;;;5079439;28;20111;-56
2022/11/02 07:59:11;;;;;;;1.23;1.13;;;;;;;;;;5075782;28;20407;-57
2022/11/02 08:01:38;;;;;;;0.90;0.90;;;;;;;;;;5086584;28;20022;-56
2022/11/02 08:04:04;;;;;;;1.05;0.80;;;;;;;;;;5072303;28;20391;-56
2022/11/02 08:06:31;;;;;;;1.30;1.20;;;;;;;;;;5087539;28;20059;-56
2022/11/02 08:08:57;;;;;;;1.10;0.90;;;;;;;;;;5089086;28;20028;-56
2022/11/02 08:11:23;;;;;;;1.63;1.13;;;;;;;;;;5089134;28;20039;-56
2022/11/02 08:13:49;;;;;;;1.40;1.20;;;;;;;;;;5071315;28;20060;-56
2022/11/02 08:16:15;;;;;;;1.10;1.00;;;;;;;;;;5081197;28;20024;-56
2022/11/02 08:18:41;;;;;;;1.63;1.25;;;;;;;;;;5080416;28;20075;-57
2022/11/02 08:21:07;;;;;;;1.63;1.00;;;;;;;;;;5089431;28;20028;-56
2022/11/02 08:23:33;;;;;;;1.20;1.10;;;;;;;;;;5089393;28;20566;-56
2022/11/02 08:26:00;;;;;;;1.38;1.10;;;;;;;;;;5069780;28;20032;-56
2022/11/02 08:28:29;;;;;;;1.65;1.25;;;;;;;;;;5070857;28;20044;-56
2022/11/02 08:30:57;;;;;;;2.13;1.30;;;;;;;;;;5068361;28;20025;-56
2022/11/02 08:33:23;;;;;;;1.52;1.17;;;;;;;;;;5068295;28;20047;-56
2022/11/02 08:35:49;;;;;;;;;;;;;;;;;;5067157;28;20423;-58
2022/11/02 08:38:14;;;;;;;;;;;;;;;;;;5067060;28;19908;-58
2022/11/02 08:40:41;;;;;;;;;;;;;;;;;;5066915;28;20375;-58
2022/11/02 08:43:07;;;;;;;;;;;;;;;;;;5067422;28;19905;-57
2022/11/02 08:45:33;;;;;;;;;;;;;;;;;;5067481;28;19931;-57
2022/11/02 08:47:59;;;;;;;;;;;;;;;;;;5066739;28;19911;-58
2022/11/02 08:50:25;;;;;;;;;;;;;;;;;;5066773;28;19911;-58
2022/11/02 08:52:51;;;;;;;;;;;;;;;;;;5066883;28;19908;-58
2022/11/02 08:55:17;;;;;;;;;;;;;;;;;;5066569;28;19904;-57
2022/11/02 08:57:43;;;;;;;;;;;;;;;;;;5066579;28;20403;-58
2022/11/02 09:00:10;;;;;;;;;;;;;;;;;;5066345;28;19943;-58
2022/11/02 09:02:37;;;;;;;;;;;;;;;;;;5067541;28;19953;-57
2022/11/02 09:05:02;;;;;;;;;;;;;;;;;;5066140;28;19908;-57
2022/11/02 09:07:29;;;;;;;;;;;;;;;;;;5066110;28;19916;-57
2022/11/02 09:09:55;;;;;;;;;;;;;;;;;;5066722;28;19904;-58
2022/11/02 09:12:21;;;;;;;;;;;;;;;;;;5066479;28;19908;-58
2022/11/02 09:14:47;;;;;;;;;;;;;;;;;;5066314;28;20342;-58
2022/11/02 09:17:13;;;;;;;;;;;;;;;;;;5066236;28;19970;-58
2022/11/02 09:19:39;;;;;;;;;;;;;;;;;;5066376;28;19908;-58
2022/11/02 09:22:05;;;;;;;;;;;;;;;;;;5067014;28;19904;-57
2022/11/02 09:24:31;;;;;;;;;;;;;;;;;;5048134;28;19974;-57
2022/11/02 09:26:56;;;;;;;;;;;;;;;;;;5066086;28;19915;-58
2022/11/02 09:29:22;;;;;;;;;;;;;;;;;;5066031;28;19935;-58
2022/11/02 09:31:48;;;;;;;;;;;;;;;;;;5066111;28;19904;-58
2022/11/02 09:34:14;;;;;;;;;;;;;;;;;;5065707;28;19911;-57
2022/11/02 09:36:40;;;;;;;;;;;;;;;;;;5065950;28;20121;-58
2022/11/02 09:39:06;;;;;;;;;;;;;;;;;;5066565;28;19955;-58
2022/11/02 09:41:32;;;;;;;;;;;;;;;;;;5065595;28;19915;-58
2022/11/02 09:43:58;;;;;;;;;;;;;;;;;;5065885;28;19908;-58
2022/11/02 09:46:23;;;;;;;;;;;;;;;;;;5065930;28;19912;-58
2022/11/02 09:48:49;;;;;;;;;;;;;;;;;;5065827;28;19926;-58
2022/11/02 09:51:16;;;;;;;;;;;;;;;;;;5065926;28;19905;-58
2022/11/02 09:53:42;;;;;;;;;;;;;;;;;;5065815;28;19912;-58
2022/11/02 09:56:08;;;;;;;;;;;;;;;;;;5067039;28;19905;-58
2022/11/02 09:58:34;;;;;;;;;;;;;;;;;;5086112;28;20011;-58
2022/11/02 10:01:00;;;;;;;;;;;;;;;;;;5085730;28;20006;-58
2022/11/02 10:03:26;;;;;;;;;;;;;;;;;;5085704;28;20002;-58
2022/11/02 10:05:52;;;;;;;;;;;;;;;;;;5086206;28;20439;-58
2022/11/02 10:08:18;;;;;;;;;;;;;;;;;;5086237;28;20006;-58
2022/11/02 10:10:43;;;;;;;;;;;;;;;;;;5085536;28;20007;-58
2022/11/02 10:13:09;;;;;;;;;;;;;;;;;;5085777;28;19904;-58
2022/11/02 10:15:35;;;;;;;;;;;;;;;;;;5085714;28;20335;-58
2022/11/02 10:18:01;;;;;;;;;;;;;;;;;;5085780;28;19908;-58
2022/11/02 10:20:27;;;;;;;;;;;;;;;;;;5089872;28;19950;-58
2022/11/02 10:22:53;;;;;;;;;;;;;;;;;;5089916;28;19998;-58
2022/11/02 10:25:20;;;;;;;;;;;;;;;;;;5090119;28;19915;-58
2022/11/02 10:27:46;;;;;;;;;;;;;;;;;;5089661;28;20406;-58
2022/11/02 10:30:12;;;;;;;;;;;;;;;;;;5089531;28;19908;-58
2022/11/02 10:32:39;;;;;;;;;;;;;;;;;;5089671;28;19904;-58
2022/11/02 10:35:06;;;;;;;;;;;;;;;;;;5089475;28;19904;-59
2022/11/02 10:37:33;;;;;;;;;;;;;;;;;;5089681;28;20019;-58
2022/11/02 10:39:59;;;;;;;;;;;;;;;;;;5089468;28;20015;-59
2022/11/02 10:42:26;;;;;;;;;;;;;;;;;;5089354;28;19904;-58
2022/11/02 10:44:53;;;;;;;;;;;;;;;;;;5089564;28;19908;-58
2022/11/02 10:47:19;;;;;;;;;;;;;;;;;;5089815;28;19915;-59
2022/11/02 10:49:45;;;;;;;;;;;;;;;;;;5089394;28;19904;-58
2022/11/02 10:52:12;;;;;;;;;;;;;;;;;;5089306;28;19904;-58
2022/11/02 10:54:38;;;;;;;;;;;;;;;;;;5089053;28;19995;-58
2022/11/02 10:57:04;;;;;;;;;;;;;;;;;;5089408;28;19998;-58
2022/11/02 10:59:30;;;;;;;;;;;;;;;;;;5089281;28;20408;-59
2022/11/02 11:01:56;;;;;;;;;;;;;;;;;;5089188;28;19926;-59
2022/11/02 11:04:21;;;;;;;;;;;;;;;;;;5089591;28;19911;-58
2022/11/02 11:06:47;;;;;;;;;;;;;;;;;;5089730;28;19947;-59
2022/11/02 11:09:13;;;;;;;;;;;;;;;;;;5088986;28;19927;-58
2022/11/02 11:11:40;;;;;;;;;;;;;;;;;;5088912;28;19950;-59
2022/11/02 11:14:07;;;;;;;;;;;;;;;;;;5088950;28;19915;-58
2022/11/02 11:16:33;;;;;;;;;;;;;;;;;;5088412;28;20385;-59
2022/11/02 11:19:00;;;;;;;;;;;;;;;;;;5088671;28;19916;-59
2022/11/02 11:21:26;;;;;;;;;;;;;;;;;;5088885;28;19907;-59
2022/11/02 11:23:52;;;;;;;;;;;;;;;;;;5089529;28;20290;-59
2022/11/02 11:26:17;;;;;;;;;;;;;;;;;;5070934;28;19908;-59
2022/11/02 11:28:43;;;;;;;;;;;;;;;;;;5088808;28;19904;-59
2022/11/02 11:31:10;;;;;;;;;;;;;;;;;;5088577;28;20352;-59
2022/11/02 11:33:36;;;;;;;;;;;;;;;;;;5088627;28;19947;-59
2022/11/02 11:36:02;;;;;;;;;;;;;;;;;;5088211;28;19973;-59
2022/11/02 11:38:28;;;;;;;;;;;;;;;;;;5088141;28;20006;-59
2022/11/02 11:40:54;;;;;;;;;;;;;;;;;;5088590;28;20004;-59
2022/11/02 11:43:20;;;;;;;;;;;;;;;;;;5089185;28;19904;-59
2022/11/02 11:45:46;;;;;;;;;;;;;;;;;;5088304;28;20327;-59
2022/11/02 11:48:12;;;;;;;;;;;;;;;;;;5088036;28;19962;-58
2022/11/02 11:50:37;;;;;;;;;;;;;;;;;;5088361;28;19904;-58
2022/11/02 11:53:03;;;;;;;;;;;;;;;;;;5087983;28;19954;-59
2022/11/02 11:55:30;;;;;;;;;;;;;;;;;;5088189;28;20439;-59
2022/11/02 11:57:56;;;;;;;;;;;;;;;;;;5087961;28;20381;-59
2022/11/02 12:00:22;;;;;;;;;;;;;;;;;;5088839;28;19973;-59
2022/11/02 12:02:48;;;;;;;;;;;;;;;;;;5088388;28;19915;-59
2022/11/02 12:05:15;;;;;;;;;;;;;;;;;;5088094;28;20398;-59
2022/11/02 12:07:41;;;;;;;;;;;;;;;;;;5087777;28;19966;-58
2022/11/02 12:10:07;;;;;;;;;;;;;;;;;;5087646;28;19955;-59
2022/11/02 12:12:33;;;;;;;;;;;;;;;;;;5087813;28;19986;-59
2022/11/02 12:14:59;;;;;;;;;;;;;;;;;;5087553;28;20409;-59
2022/11/02 12:17:25;;;;;;;;;;;;;;;;;;5087429;28;19961;-59
2022/11/02 12:19:50;;;;;;;;;;;;;;;;;;5088654;28;19904;-59
2022/11/02 12:22:16;;;;;;;;;;;;;;;;;;5087312;28;19908;-59
2022/11/02 12:24:42;;;;;;;;;;;;;;;;;;5087737;28;19913;-59
2022/11/02 12:27:08;;;;;;;;;;;;;;;;;;5087295;28;20334;-59
2022/11/02 12:29:34;;;;;;;;;;;;;;;;;;5087657;28;19994;-59
2022/11/02 12:32:00;;;;;;;;;;;;;;;;;;5086959;28;20345;-59
2022/11/02 12:34:26;;;;;;;;;;;;;;;;;;5087156;28;19904;-59
2022/11/02 12:36:53;;;;;;;;;;;;;;;;;;5087367;28;19912;-59
2022/11/02 12:39:18;;;;;;;;;;;;;;;;;;5086562;28;19912;-58
2022/11/02 12:41:45;;;;;;;;;;;;;;;;;;5074136;28;19961;-59
2022/11/02 12:44:11;;;;;;;;;;;;;;;;;;5087283;28;19911;-59
2022/11/02 12:46:36;;;;;;;;;;;;;;;;;;5087092;28;20399;-59
2022/11/02 12:49:02;;;;;;;;;;;;;;;;;;5087208;28;19958;-59
2022/11/02 12:51:28;;;;;;;;;;;;;;;;;;5087246;28;19958;-59
2022/11/02 12:53:54;;;;;;;;;;;;;;;;;;5086927;28;19904;-59
2022/11/02 12:56:20;;;;;;;;;;;;;;;;;;5085135;28;20420;-59
2022/11/02 12:58:46;;;;;;;;;;;;;;;;;;5067134;28;20027;-59
2022/11/02 13:01:12;;;;;;;;;;;;;;;;;;5067705;28;19912;-59
2022/11/02 13:03:38;;;;;;;;;;;;;;;;;;5077359;28;19912;-59
2022/11/02 13:06:05;;;;;;;;;;;;;;;;;;5075397;28;19931;-59
2022/11/02 13:08:31;;;;;;;;;;;;;;;;;;5102429;28;20469;-59
2022/11/02 13:10:57;;;;;;;;;;;;;;;;;;5086102;28;19998;-59
2022/11/02 13:13:23;;;;;;;;;;;;;;;;;;5107062;28;19945;-59
2022/11/02 13:15:49;;;;;;;;;;;;;;;;;;5096797;28;19918;-59
2022/11/02 13:18:15;;;;;;;;;;;;;;;;;;5071078;28;20398;-59
2022/11/02 13:20:41;;;;;;;;;;;;;;;;;;5067658;28;20356;-59
2022/11/02 13:23:07;;;;;;;;;;;;;;;;;;5075190;28;19920;-59
2022/11/02 13:25:33;;;;;;;;;;;;;;;;;;5065880;28;19913;-59
2022/11/02 13:27:59;;;;;;;;;;;;;;;;;;5066260;28;19909;-59
2022/11/02 13:30:25;;;;;;;;;;;;;;;;;;5071835;28;19908;-59
2022/11/02 13:32:51;;;;;;;;;;;;;;;;;;5067673;28;19966;-59
2022/11/02 13:35:17;;;;;;;;;;;;;;;;;;5067321;28;19916;-59
2022/11/02 13:37:43;;;;;;;;;;;;;;;;;;5049340;28;19951;-59
2022/11/02 13:40:09;;;;;;;;;;;;;;;;;;5083472;28;19920;-59
2022/11/02 13:42:35;;;;;;;;;;;;;;;;;;5087688;28;20393;-59
2022/11/02 13:45:01;;;;;;;;;;;;;;;;;;5087503;28;19904;-59
2022/11/02 13:47:27;;;;;;;;;;;;;;;;;;5085317;28;19912;-59
2022/11/02 13:49:53;;;;;;;;;;;;;;;;;;5087591;28;19994;-59
2022/11/02 13:52:19;;;;;;;;;;;;;;;;;;5088308;28;19908;-59
2022/11/02 13:54:45;;;;;;;;;;;;;;;;;;5072939;28;19951;-59
2022/11/02 13:57:11;;;;;;;;;;;;;;;;;;5067330;28;19970;-59
2022/11/02 13:59:37;;;;;;;;;;;;;;;;;;5067402;28;19912;-59
2022/11/02 14:02:03;;;;;;;;;;;;;;;;;;5066953;28;19904;-59
2022/11/02 14:04:29;;;;;;;;;;;;;;;;;;5066891;28;20011;-59
2022/11/02 14:06:55;;;;;;;;;;;;;;;;;;5083693;28;19908;-59
2022/11/02 14:09:21;;;;;;;;;;;;;;;;;;5076781;28;19908;-59
2022/11/02 14:11:47;;;;;;;;;;;;;;;;;;5075093;28;19912;-59
2022/11/02 14:14:13;;;;;;;;;;;;;;;;;;5066671;28;20260;-59
2022/11/02 14:16:40;;;;;;;;;;;;;;;;;;5066615;28;19922;-59
2022/11/02 14:19:06;;;;;;;;;;;;;;;;;;5096696;28;19957;-59
2022/11/02 14:21:32;;;;;;;;;;;;;;;;;;5082946;28;19908;-59
2022/11/02 14:23:58;;;;;;;;;;;;;;;;;;5085243;28;19908;-59
2022/11/02 14:26:24;;;;;;;;;;;;;;;;;;5086560;28;20037;-59
2022/11/02 14:28:50;;;;;;;;;;;;;;;;;;5080764;28;19908;-59
2022/11/02 14:31:16;;;;;;;;;;;;;;;;;;5085326;28;19954;-59
2022/11/02 14:33:42;;;;;;;;;;;;;;;;;;5076577;28;19916;-59
2022/11/02 14:36:08;;;;;;;;;;;;;;;;;;5083117;28;20326;-59
2022/11/02 14:38:34;;;;;;;;;;;;;;;;;;5083458;28;19986;-60
2022/11/02 14:41:00;;;;;;;;;;;;;;;;;;5087509;28;19933;-59
2022/11/02 14:43:26;;;;;;;;;;;;;;;;;;5068110;28;19916;-59
2022/11/02 14:45:52;;;;;;;;;;;;;;;;;;5075992;28;19916;-59
2022/11/02 14:48:17;;;;;;;;;;;;;;;;;;5078351;28;19912;-59
2022/11/02 14:50:43;;;;;;;;;;;;;;;;;;5085367;28;20246;-59
2022/11/02 14:53:09;;;;;;;;;;;;;;;;;;5070251;28;19912;-60
2022/11/02 14:55:35;;;;;;;;;;;;;;;;;;5078397;28;19931;-59
2022/11/02 14:58:01;;;;;;;;;;;;;;;;;;5071388;28;19919;-59
2022/11/02 15:00:27;;;;;;;;;;;;;;;;;;5072275;28;20369;-59
2022/11/02 15:02:53;;;;;;;;;;;;;;;;;;5095703;28;20298;-59
2022/11/02 15:05:19;;;;;;;;;;;;;;;;;;5110173;28;19919;-59
2022/11/02 15:07:45;;;;;;;;;;;;;;;;;;5079660;28;19908;-59
2022/11/02 15:10:11;;;;;;;;;;;;;;;;;;5071947;28;19916;-59
2022/11/02 15:12:37;;;;;;;;;;;;;;;;;;5087626;28;19911;-59
2022/11/02 15:15:03;;;;;;;;;;;;;;;;;;5071380;28;20383;-60
2022/11/02 15:17:29;;;;;;;;;;;;;;;;;;5068913;28;20065;-60
2022/11/02 15:19:55;;;;;;;;;;;;;;;;;;5074336;28;19995;-59
2022/11/02 15:22:21;;;;;;;;;;;;;;;;;;5076826;28;19908;-60
2022/11/02 15:24:47;;;;;;;;;;;;;;;;;;5082855;28;19958;-59
2022/11/02 15:27:14;;;;;;;;;;;;;;;;;;5089587;28;19911;-59
2022/11/02 15:29:40;;;;;;;;;;;;;;;;;;5081520;28;20397;-59
2022/11/02 15:32:06;;;;;;;;;;;;;;;;;;5069910;28;19951;-59
2022/11/02 15:34:32;;;;;;;;;;;;;;;;;;5073727;28;19908;-59
2022/11/02 15:36:58;;;;;;;;;;;;;;;;;;5082283;28;19994;-59
2022/11/02 15:39:24;;;;;;;3.63;1.02;;;;;;;;;;5071702;28;20493;-59
2022/11/02 15:41:56;;;;;;;3.95;0.80;;;;;;;;;;5048994;28;20028;-60
2022/11/02 15:44:28;;;;;;;7.53;1.52;;;;;;;;;;5058860;28;20036;-60
2022/11/02 15:46:54;;;;;;;10.38;1.67;;;;;;;;;;5070430;28;20043;-59
2022/11/02 15:49:43;;;;;;;7.68;1.55;;;;;;;;;;5064505;28;20031;-59
2022/11/02 15:52:17;;;;;;;6.78;1.45;;;;;;;;;;5058751;28;20044;-59
2022/11/02 15:55:01;;;;;;;5.43;1.58;;;;;;;;;;5060536;28;20029;-59
2022/11/02 15:57:27;;;;;;;;;;;;;;;;;;5061514;28;20043;-59
2022/11/02 16:00:06;;;;;;;2.10;1.00;;;;;;;;;;5061170;28;19951;-59
2022/11/02 16:02:34;;;;;;;2.20;0.90;;;;;;;;;;5071688;28;20016;-59
2022/11/02 16:05:01;;;;;;;1.05;0.60;;;;;;;;;;5060594;28;21011;-59
2022/11/02 16:07:28;;;;;;;1.27;0.75;;;;;;;;;;5062343;28;20035;-59
2022/11/02 16:10:09;;;;;;;1.88;0.80;;;;;;;;;;5061525;28;20028;-59
2022/11/02 16:12:35;;;;;;;1.17;0.88;;;;;;;;;;5060514;28;20032;-59
2022/11/02 16:15:09;;;;;;;0.70;0.55;;;;;;;;;;5065197;28;20103;-59
2022/11/02 16:17:35;;;;;;;1.60;0.97;;;;;;;;;;5072696;28;20036;-59
2022/11/02 16:20:14;;;;;;;2.50;0.90;;;;;;;;;;5090598;28;20265;-60
2022/11/02 16:22:46;;;;;;;2.22;0.85;;;;;;;;;;5085635;28;20043;-59
2022/11/02 16:25:19;;;;;;;2.35;0.80;;;;;;;;;;5070607;28;20017;-59
2022/11/02 16:27:45;;;;;;;1.30;0.93;;;;;;;;;;5088974;28;20031;-59
2022/11/02 16:30:21;;;;;;;1.95;0.93;;;;;;;;;;5071691;28;20432;-59
2022/11/02 16:32:51;;;;;;;2.03;1.00;;;;;;;;;;5069283;28;20025;-59
2022/11/02 16:35:18;;;;;;;1.45;0.88;;;;;;;;;;5068932;28;20028;-59
2022/11/02 16:37:44;;;;;;;2.05;1.00;;;;;;;;;;5069216;28;20050;-59
2022/11/02 16:40:16;;;;;;;0.88;0.70;;;;;;;;;;5085827;28;20051;-59
2022/11/02 16:42:44;;;;;;;1.58;1.00;;;;;;;;;;5085058;28;20608;-59
2022/11/02 16:45:28;;;;;;;2.28;1.20;;;;;;;;;;5085937;28;20034;-59
2022/11/02 16:47:54;;;;;;;3.05;1.25;;;;;;;;;;5087152;28;20020;-59
2022/11/02 16:50:21;;;;;;;1.27;1.08;;;;;;;;;;5077462;28;20041;-59
2022/11/02 16:53:01;;;;;;;1.35;1.10;;;;;;;;;;5073771;28;20025;-59
2022/11/02 16:55:33;;;;;;;1.50;1.05;;;;;;;;;;5067952;28;20483;-59
2022/11/02 16:58:00;;;;;;;2.47;1.35;;;;;;;;;;5085287;28;20038;-59
2022/11/02 17:00:26;;;;;;;1.90;1.13;;;;;;;;;;5077695;28;20037;-59
2022/11/02 17:02:52;;;;;;;2.53;1.30;;;;;;;;;;5073069;28;20023;-59
2022/11/02 17:05:23;;;;;;;2.20;1.00;;;;;;;;;;5086117;28;20110;-59
2022/11/02 17:07:56;;;;;;;1.83;1.27;;;;;;;;;;5084577;28;20110;-59
2022/11/02 17:10:25;;;;;;;1.80;1.23;;;;;;;;;;5088485;28;20052;-59
2022/11/02 17:12:51;;;;;;;2.22;1.40;;;;;;;;;;5074982;28;20032;-59
2022/11/02 17:15:18;;;;;;;1.40;1.15;;;;;;;;;;5084769;28;20058;-59
2022/11/02 17:17:44;;;;;;;1.88;1.20;;;;;;;;;;5087458;28;20024;-59
2022/11/02 17:20:13;;;;;;;2.03;1.05;;;;;;;;;;5086984;28;20024;-59
2022/11/02 17:22:48;;;;;;;1.23;0.98;;;;;;;;;;5073237;28;20074;-60
2022/11/02 17:25:20;;;;;;;1.20;0.90;;;;;;;;;;5081370;28;20029;-59
2022/11/02 17:27:46;;;;;;;0.80;0.80;;;;;;;;;;5077101;28;20028;-59
2022/11/02 17:30:31;;;;;;;1.17;0.90;;;;;;;;;;5087767;28;20067;-59
2022/11/02 17:32:57;;;;;;;1.60;0.80;;;;;;;;;;5070112;28;20056;-59
2022/11/02 17:35:23;;;;;;;1.35;0.93;;;;;;;;;;5066598;28;20060;-59
2022/11/02 17:37:52;;;;;;;1.50;0.73;;;;;;;;;;5066359;28;20403;-59
2022/11/02 17:40:18;;;;;;;1.95;0.90;;;;;;;;;;5082493;28;20228;-59
2022/11/02 17:42:59;;;;;;;1.40;0.60;;;;;;;;;;5068942;28;20074;-59
2022/11/02 17:45:36;;;;;;;0.85;0.60;;;;;;;;;;5077139;28;20028;-60
2022/11/02 17:48:03;;;;;;;0.98;0.70;;;;;;;;;;5066282;28;20032;-60
2022/11/02 17:50:29;;;;;;;0.95;0.80;;;;;;;;;;5079887;28;20044;-59
2022/11/02 17:52:56;;;;;;;1.38;0.70;;;;;;;;;;5077940;28;20028;-60
2022/11/02 17:55:28;;;;;;;2.22;0.70;;;;;;;;;;5063584;28;20025;-60
2022/11/02 17:57:54;;;;;;;2.13;0.93;;;;;;;;;;5076031;28;20032;-60
2022/11/02 18:00:22;;;;;;;1.13;0.70;;;;;;;;;;5104461;28;20197;-60
2022/11/02 18:02:49;;;;;;;1.92;1.05;;;;;;;;;;5093818;28;20023;-60
2022/11/02 18:05:23;;;;;;;1.17;0.80;;;;;;;;;;5045780;28;20618;-60
2022/11/02 18:07:50;;;;;;;1.35;0.70;;;;;;;;;;5064260;28;20417;-60
2022/11/02 18:10:16;;;;;;;1.05;0.63;;;;;;;;;;5064013;28;20040;-60
2022/11/02 18:12:44;;;;;;;1.30;0.60;;;;;;;;;;5063205;28;20039;-60
2022/11/02 18:15:18;;;;;;;1.08;0.80;;;;;;;;;;5080044;28;20032;-60
2022/11/02 18:17:44;;;;;;;;;;;;;;;;;;5053237;28;20483;-60
2022/11/02 18:20:10;;;;;;;1.65;0.90;;;;;;;;;;5074681;28;19959;-60
2022/11/02 18:22:37;;;;;;;1.33;0.88;;;;;;;;;;5069536;28;20067;-61
2022/11/02 18:25:04;;;;;;;1.20;1.05;;;;;;;;;;5068338;28;20033;-60
2022/11/02 18:27:31;;;;;;;2.05;1.35;;;;;;;;;;5068043;28;20033;-60
2022/11/02 18:29:57;;;;;;;1.33;0.95;;;;;;;;;;5061204;28;20035;-60
2022/11/02 18:32:23;;;;;;;1.90;0.95;;;;;;;;;;5047262;28;20055;-60
2022/11/02 18:34:49;;;;;;;1.67;0.95;;;;;;;;;;5056646;28;20036;-61
2022/11/02 18:37:16;;;;;;;1.30;0.85;;;;;;;;;;5076027;28;20032;-61
2022/11/02 18:39:42;;;;;;;1.77;0.93;;;;;;;;;;5080521;28;20518;-60
2022/11/02 18:42:08;;;;;;;1.67;0.75;;;;;;;;;;5089619;28;20020;-60
2022/11/02 18:44:34;;;;;;;1.52;0.95;;;;;;;;;;5087612;28;20028;-60
2022/11/02 18:47:01;;;;;;;1.90;1.00;;;;;;;;;;5067358;28;20075;-60
2022/11/02 18:49:28;;;;;;;1.67;0.75;;;;;;;;;;5055789;28;20023;-61
2022/11/02 18:51:54;;;;;;;1.38;0.70;;;;;;;;;;5074279;28;20517;-61
2022/11/02 18:54:21;;;;;;;;;;;;;;;;;;5089989;28;20024;-61
2022/11/02 18:56:48;;;;;;;;;;;;;;;;;;5085347;28;20511;-61
2022/11/02 18:59:14;;;;;;;;;;;;;;;;;;5068909;28;20367;-60
2022/11/02 19:01:40;;;;;;;;;;;;;;;;;;5074289;28;19913;-61
2022/11/02 19:04:05;;;;;;;;;;;;;;;;;;5084973;28;20273;-61
2022/11/02 19:09:19;;;;;;;;;;;;;;;;;;5081627;28;19915;-62
2022/11/02 19:11:45;;;;;;;;;;;;;;;;;;5075457;28;19939;-62
2022/11/02 19:14:11;;;;;;;;;;;;;;;;;;5064033;28;19990;-61
2022/11/02 19:16:37;;;;;;;;;;;;;;;;;;5078358;28;19908;-61
2022/11/02 19:19:03;;;;;;;;;;;;;;;;;;5082345;28;19955;-61
2022/11/02 19:21:29;;;;;;;;;;;;;;;;;;5084951;28;19912;-61
2022/11/02 19:23:55;;;;;;;;;;;;;;;;;;5066858;28;20268;-61
2022/11/02 19:26:20;;;;;;;;;;;;;;;;;;5087943;28;19908;-61
2022/11/02 19:28:46;;;;;;;;;;;;;;;;;;5063751;28;20365;-60
2022/11/02 19:31:12;;;;;;;;;;;;;;;;;;5084774;28;19912;-61
2022/11/02 19:33:38;;;;;;;;;;;;;;;;;;5082652;28;20618;-61
2022/11/02 19:36:05;;;;;;;;;;;;;;;;;;5078704;28;19909;-61
2022/11/02 19:38:30;;;;;;;;;;;;;;;;;;5082612;28;19912;-61
2022/11/02 19:40:56;;;;;;;;;;;;;;;;;;5071885;28;19970;-61
2022/11/02 19:43:24;;;;;;;;;;;;;;;;;;5081108;28;19912;-61
2022/11/02 19:45:50;;;;;;;;;;;;;;;;;;5083695;28;19916;-61
2022/11/02 19:48:16;;;;;;;;;;;;;;;;;;5074055;28;19908;-61
2022/11/02 19:50:42;;;;;;;;;;;;;;;;;;5069104;28;19915;-62
2022/11/02 19:53:08;;;;;;;;;;;;;;;;;;5075103;28;19908;-60
2022/11/02 19:55:34;;;;;;;;;;;;;;;;;;5079122;28;19908;-60
2022/11/02 19:58:00;;;;;;;;;;;;;;;;;;5078677;28;20069;-60
2022/11/02 20:00:26;;;;;;;;;;;;;;;;;;5085016;28;19913;-61
2022/11/02 20:02:52;;;;;;;;;;;;;;;;;;5063656;28;19985;-61
2022/11/02 20:05:18;;;;;;;;;;;;;;;;;;5076472;28;19908;-61
2022/11/02 20:07:44;;;;;;;;;;;;;;;;;;5064643;28;20435;-61
2022/11/02 20:10:10;;;;;;;;;;;;;;;;;;5090247;28;20003;-39
2022/11/02 20:12:36;;;;;;;;;;;;;;;;;;5084398;28;19904;-39
2022/11/02 20:15:02;;;;;;;;;;;;;;;;;;5083171;28;19908;-39
2022/11/02 20:17:27;;;;;;;;;;;;;;;;;;5087120;28;20386;-39
2022/11/02 20:19:53;;;;;;;;;;;;;;;;;;5079758;28;19915;-39
2022/11/02 20:22:19;;;;;;;;;;;;;;;;;;5086990;28;19907;-39
2022/11/02 20:24:45;;;;;;;;;;;;;;;;;;5085066;28;19915;-39
2022/11/02 20:27:12;;;;;;;;;;;;;;;;;;5108996;28;19907;-39
2022/11/02 20:29:39;;;;;;;;;;;;;;;;;;5080383;28;19908;-39
2022/11/02 20:32:08;;;;;;;;;;;;;;;;;;5069155;28;20315;-39
2022/11/02 20:34:34;;;;;;;;;;;;;;;;;;5069245;28;19905;-39
2022/11/02 20:37:00;;;;;;;;;;;;;;;;;;5051229;28;19905;-39
2022/11/02 20:39:26;;;;;;;;;;;;;;;;;;5050402;28;19970;-39
2022/11/02 20:41:54;;;;;;;;;;;;;;;;;;5069120;28;19905;-40
2022/11/02 20:44:21;;;;;;;;;;;;;;;;;;5068085;28;19927;-40
2022/11/02 20:46:46;;;;;;;;;;;;;;;;;;5068250;28;20406;-39
2022/11/02 20:49:12;;;;;;;;;;;;;;;;;;5068339;28;19908;-39
2022/11/02 20:51:38;;;;;;;;;;;;;;;;;;5082174;28;19918;-39
2022/11/02 20:54:06;;;;;;;;;;;;;;;;;;5088567;28;20367;-39
2022/11/02 20:56:32;;;;;;;;;;;;;;;;;;5088201;28;19904;-39
2022/11/02 20:58:58;;;;;;;;;;;;;;;;;;5088172;28;19918;-39
2022/11/02 21:01:23;;;;;;;;;;;;;;;;;;5087873;28;19908;-39
2022/11/02 21:03:49;;;;;;;;;;;;;;;;;;5071856;28;19935;-39
2022/11/02 21:06:15;;;;;;;;;;;;;;;;;;5096299;28;20006;-39
2022/11/02 21:08:42;;;;;;;;;;;;;;;;;;5108269;28;19904;-39
2022/11/02 21:13:50;;;;;;;;;;;;;;;;;;5092353;28;19994;-39
2022/11/02 21:13:54;;;;;;;;;;;;;;;;;;5088444;28;19904;-39
2022/11/02 21:16:19;;;;;;;;;;;;;;;;;;5087415;28;20367;-39